Time;durP1;ratioP1;P1;durP2;ratioP2;P2;SDS_P1;SDS_P2;PMS_P1;PMS_P2;Temp;Humidity;BMP_temperature;BMP_pressure;BME280_temperature;BME280_humidity;BME280_pressure;Samples;Min_cycle;Max_cycle;Signal;HPM_P1;HPM_P2
2022/04/01 00:00:56;;;;;;;28.03;14.30;;;5.30;99.90;;;;;;4960792;29;20215;-84
2022/04/01 00:03:21;;;;;;;26.60;13.30;;;5.20;99.90;;;;;;4960990;29;20612;-83
2022/04/01 00:05:47;;;;;;;24.10;14.60;;;5.30;99.90;;;;;;4970253;28;20184;-85
2022/04/01 00:08:12;;;;;;;33.77;15.87;;;5.30;99.90;;;;;;4974983;28;20652;-85
2022/04/01 00:10:38;;;;;;;26.70;13.20;;;5.30;99.90;;;;;;4952351;29;20180;-85
2022/04/01 00:13:04;;;;;;;24.00;13.60;;;5.30;99.90;;;;;;4959411;29;20176;-85
2022/04/01 00:15:30;;;;;;;26.38;14.95;;;5.30;99.90;;;;;;4980379;23;20227;-84
2022/04/01 00:17:56;;;;;;;28.83;13.30;;;5.30;99.90;;;;;;4979702;28;20591;-85
2022/04/01 00:20:21;;;;;;;30.07;14.83;;;5.10;99.90;;;;;;4980236;28;20182;-85
2022/04/01 00:22:48;;;;;;;23.50;11.63;;;;;;;;;;4987309;28;20711;-87
2022/04/01 00:25:14;;;;;;;21.35;11.63;;;5.00;99.90;;;;;;4976974;28;20294;-85
2022/04/01 00:27:40;;;;;;;21.83;11.15;;;4.90;99.90;;;;;;4968869;28;20259;-86
2022/04/01 00:30:09;;;;;;;27.58;12.73;;;4.90;99.90;;;;;;4965943;28;20188;-85
2022/04/01 00:32:35;;;;;;;21.35;10.98;;;4.90;99.90;;;;;;4968946;28;20726;-86
2022/04/01 00:35:00;;;;;;;22.05;12.82;;;4.90;99.90;;;;;;4970763;28;20283;-84
2022/04/01 00:37:26;;;;;;;24.60;12.23;;;4.90;99.90;;;;;;4968802;28;20184;-84
2022/04/01 00:39:51;;;;;;;26.40;13.13;;;4.90;99.90;;;;;;4968751;28;20187;-84
2022/04/01 00:42:17;;;;;;;21.87;12.17;;;4.90;99.90;;;;;;4966782;28;20216;-85
2022/04/01 00:44:43;;;;;;;21.43;11.87;;;4.90;99.90;;;;;;4963895;28;20200;-84
2022/04/01 00:47:11;;;;;;;25.13;12.43;;;4.80;99.90;;;;;;4966294;28;20183;-83
2022/04/01 00:49:38;;;;;;;22.80;12.35;;;4.80;99.90;;;;;;4962152;28;20204;-85
2022/04/01 00:52:06;;;;;;;26.50;12.55;;;4.80;99.90;;;;;;4969538;28;20210;-85
2022/04/01 00:54:32;;;;;;;24.58;12.00;;;4.80;99.90;;;;;;4961833;28;20207;-84
2022/04/01 00:56:58;;;;;;;29.60;12.17;;;4.80;99.90;;;;;;4962856;28;20489;-83
2022/04/01 00:59:25;;;;;;;23.08;13.25;;;4.90;99.90;;;;;;4966928;28;20537;-84
2022/04/01 01:01:50;;;;;;;24.90;14.07;;;4.90;99.90;;;;;;4963897;28;20230;-83
2022/04/01 01:04:19;;;;;;;20.70;11.47;;;4.90;99.90;;;;;;4958875;28;20187;-83
2022/04/01 01:06:49;;;;;;;23.90;13.18;;;5.00;99.90;;;;;;4967461;28;20196;-84
2022/04/01 01:09:15;;;;;;;29.42;12.80;;;4.90;99.90;;;;;;4963028;28;20208;-85
2022/04/01 01:11:42;;;;;;;27.40;14.10;;;4.80;99.90;;;;;;4961523;28;20235;-84
2022/04/01 01:14:10;;;;;;;27.30;13.23;;;4.90;99.90;;;;;;4974115;28;20480;-84
2022/04/01 01:16:44;;;;;;;25.27;12.65;;;4.80;99.90;;;;;;4985539;28;20227;-83
2022/04/01 01:19:12;;;;;;;27.83;13.52;;;4.90;99.90;;;;;;4970787;28;20184;-85
2022/04/01 01:21:40;;;;;;;22.98;12.55;;;4.80;99.90;;;;;;4974295;28;20197;-86
2022/04/01 01:24:08;;;;;;;20.13;10.88;;;4.80;99.90;;;;;;4974229;28;20184;-85
2022/04/01 01:26:45;;;;;;;24.17;12.60;;;4.80;99.90;;;;;;4970063;28;20210;-85
2022/04/01 01:29:30;;;;;;;20.15;11.48;;;4.70;99.90;;;;;;4973131;28;20617;-85
2022/04/01 01:31:59;;;;;;;17.17;11.05;;;4.70;99.90;;;;;;4978354;28;20250;-85
2022/04/01 01:34:25;;;;;;;21.63;11.82;;;4.60;99.90;;;;;;4979077;28;20243;-86
2022/04/01 01:36:52;;;;;;;19.38;10.50;;;4.60;99.90;;;;;;4977570;28;20964;-85
2022/04/01 01:39:19;;;;;;;18.40;10.70;;;6.10;99.90;;;;;;4976099;28;20204;-84
2022/04/01 01:41:45;;;;;;;18.73;11.35;;;4.60;99.90;;;;;;4973105;28;20198;-84
2022/04/01 01:44:11;;;;;;;22.48;10.88;;;4.50;99.90;;;;;;4970614;28;20182;-83
2022/04/01 01:46:38;;;;;;;21.45;11.00;;;4.50;99.90;;;;;;4968164;28;20215;-84
2022/04/01 01:49:04;;;;;;;19.38;11.35;;;4.50;99.90;;;;;;4975036;28;20200;-85
2022/04/01 01:56:59;;;;;;;19.17;10.80;;;4.50;99.90;;;;;;4970721;28;20242;-84
2022/04/01 01:59:25;;;;;;;16.70;9.93;;;4.40;99.90;;;;;;4971908;28;20637;-86
2022/04/01 02:01:51;;;;;;;21.63;13.27;;;4.40;99.90;;;;;;4969765;28;20195;-85
2022/04/01 02:04:17;;;;;;;23.77;12.30;;;4.40;99.90;;;;;;4962404;28;20211;-84
2022/04/01 02:06:43;;;;;;;21.30;12.00;;;4.40;99.90;;;;;;4968111;28;20191;-84
2022/04/01 02:09:08;;;;;;;21.73;11.40;;;4.40;99.90;;;;;;4974803;28;20204;-84
2022/04/01 02:11:37;;;;;;;19.77;11.17;;;4.40;99.90;;;;;;4973063;28;20179;-83
2022/04/01 02:14:03;;;;;;;21.55;13.10;;;4.40;99.90;;;;;;4968964;28;20695;-83
2022/04/01 02:16:28;;;;;;;20.13;11.80;;;4.60;99.90;;;;;;4968174;28;20298;-84
2022/04/01 02:18:54;;;;;;;18.30;10.53;;;4.70;99.90;;;;;;4967431;28;20464;-84
2022/04/01 02:21:20;;;;;;;17.67;10.90;;;4.70;99.90;;;;;;4974557;28;20199;-85
2022/04/01 02:23:47;;;;;;;21.40;11.17;;;4.70;99.90;;;;;;4970725;28;20187;-82
2022/04/01 02:26:13;;;;;;;21.65;12.07;;;4.70;99.90;;;;;;4983670;28;21302;-82
2022/04/01 02:28:41;;;;;;;18.17;11.02;;;4.70;99.90;;;;;;4982932;28;20246;-82
2022/04/01 02:31:08;;;;;;;19.42;10.23;;;4.70;99.90;;;;;;4971604;28;20616;-80
2022/04/01 02:33:35;;;;;;;18.95;11.20;;;4.80;99.90;;;;;;4971238;28;20179;-81
2022/04/01 02:36:06;;;;;;;17.80;11.35;;;4.80;99.90;;;;;;4963754;28;20208;-82
2022/04/01 02:38:32;;;;;;;20.15;11.07;;;4.70;99.90;;;;;;4972803;28;20191;-84
2022/04/01 02:40:58;;;;;;;26.00;11.95;;;4.50;99.90;;;;;;4979798;28;20207;-84
2022/04/01 02:43:25;;;;;;;35.85;18.08;;;4.50;99.90;;;;;;4969163;28;20659;-84
2022/04/01 02:45:51;;;;;;;45.55;21.70;;;4.40;99.90;;;;;;4970527;28;20206;-82
2022/04/01 02:48:18;;;;;;;43.13;22.92;;;4.40;99.90;;;;;;4968932;28;20216;-83
2022/04/01 02:50:46;;;;;;;35.95;19.05;;;4.40;99.90;;;;;;4969911;28;20271;-82
2022/04/01 02:53:12;;;;;;;44.92;22.10;;;4.40;99.90;;;;;;4972501;28;20191;-81
2022/04/01 02:55:38;;;;;;;43.60;22.43;;;4.40;99.90;;;;;;4969336;28;20196;-82
2022/04/01 02:58:05;;;;;;;45.28;22.98;;;4.40;99.90;;;;;;4960844;28;20436;-85
2022/04/01 03:00:35;;;;;;;41.35;20.98;;;4.30;99.90;;;;;;4965900;28;20179;-82
2022/04/01 03:03:06;;;;;;;44.78;23.33;;;4.30;99.90;;;;;;4964963;28;20184;-81
2022/04/01 03:05:33;;;;;;;40.65;23.55;;;4.30;99.90;;;;;;4971214;28;20200;-82
2022/04/01 03:08:00;;;;;;;39.38;21.60;;;4.30;99.90;;;;;;4968015;28;20183;-80
2022/04/01 03:10:26;;;;;;;34.80;18.10;;;4.30;99.90;;;;;;4964904;28;20202;-81
2022/04/01 03:12:52;;;;;;;39.88;22.35;;;4.10;99.90;;;;;;4958318;28;20205;-78
2022/04/01 03:15:17;;;;;;;43.60;20.73;;;4.10;99.90;;;;;;4971733;28;20220;-84
2022/04/01 03:17:44;;;;;;;41.40;20.17;;;4.10;99.90;;;;;;4968249;28;20186;-84
2022/04/01 03:20:13;;;;;;;33.15;17.58;;;4.10;99.90;;;;;;4967122;28;20285;-82
2022/04/01 03:22:43;;;;;;;37.00;19.77;;;4.00;99.90;;;;;;4970518;28;20192;-84
2022/04/01 03:25:20;;;;;;;40.15;19.65;;;3.90;99.90;;;;;;4965071;28;20200;-83
2022/04/01 03:27:49;;;;;;;48.90;21.50;;;3.90;99.90;;;;;;4978842;28;20183;-84
2022/04/01 03:30:17;;;;;;;51.60;23.40;;;3.80;99.90;;;;;;4975682;28;20239;-83
2022/04/01 03:32:43;;;;;;;40.67;19.38;;;3.80;99.90;;;;;;4972041;28;20171;-83
2022/04/01 03:35:13;;;;;;;46.10;23.90;;;3.80;99.90;;;;;;4976869;28;20218;-82
2022/04/01 03:37:39;;;;;;;38.08;18.40;;;3.80;99.90;;;;;;4969949;28;20191;-85
2022/04/01 03:40:05;;;;;;;33.55;18.35;;;3.80;99.90;;;;;;4972507;28;20183;-86
2022/04/01 03:42:32;;;;;;;45.85;20.00;;;3.70;99.90;;;;;;4971162;28;20188;-85
2022/04/01 03:45:03;;;;;;;43.47;22.63;;;3.70;99.90;;;;;;4970058;28;20200;-83
2022/04/01 03:48:06;;;;;;;46.90;20.83;;;3.70;99.90;;;;;;4974583;28;20210;-84
2022/04/01 03:50:33;;;;;;;55.33;26.52;;;3.70;99.90;;;;;;4920069;28;20304;-83
2022/04/01 03:53:05;;;;;;;43.85;21.67;;;3.70;99.90;;;;;;4967907;28;20588;-84
2022/04/01 03:55:36;;;;;;;40.45;20.40;;;3.70;99.90;;;;;;4966937;28;20220;-84
2022/04/01 03:58:07;;;;;;;50.13;23.15;;;3.70;99.90;;;;;;4972222;28;21045;-83
2022/04/01 04:00:33;;;;;;;61.30;26.00;;;3.80;99.90;;;;;;4977080;28;20190;-85
2022/04/01 04:02:59;;;;;;;57.33;28.13;;;3.80;99.90;;;;;;4971171;28;20188;-85
2022/04/01 04:05:27;;;;;;;58.65;25.67;;;3.80;99.90;;;;;;4971415;28;20211;-82
2022/04/01 04:07:55;;;;;;;41.75;20.50;;;3.90;99.90;;;;;;4976700;28;20267;-80
2022/04/01 04:10:21;;;;;;;49.33;23.08;;;3.80;99.90;;;;;;4971243;28;21201;-82
2022/04/01 04:12:48;;;;;;;52.97;26.75;;;3.80;99.90;;;;;;4971036;28;20183;-81
2022/04/01 04:15:14;;;;;;;51.03;26.80;;;3.60;99.90;;;;;;4970476;28;20211;-86
2022/04/01 04:17:46;;;;;;;57.63;26.90;;;3.80;99.90;;;;;;4977616;28;20265;-84
2022/04/01 04:20:32;;;;;;;60.78;26.08;;;3.90;99.90;;;;;;4990629;28;20663;-84
2022/04/01 04:23:15;;;;;;;52.67;23.15;;;3.90;99.90;;;;;;4975725;28;20172;-85
2022/04/01 04:25:59;;;;;;;57.38;26.58;;;3.80;99.90;;;;;;4972078;28;20195;-79
2022/04/01 04:28:26;;;;;;;49.63;23.63;;;3.70;99.90;;;;;;4977371;28;20209;-78
2022/04/01 04:30:54;;;;;;;56.85;24.60;;;3.80;99.90;;;;;;4968819;28;20187;-82
2022/04/01 04:33:23;;;;;;;56.45;26.20;;;3.80;99.90;;;;;;4967923;28;20226;-82
2022/04/01 04:35:49;;;;;;;57.88;25.13;;;3.60;99.90;;;;;;4961262;28;20298;-81
2022/04/01 04:38:18;;;;;;;56.45;25.60;;;3.70;99.90;;;;;;4956222;28;20191;-78
2022/04/01 04:40:43;;;;;;;60.25;27.35;;;3.70;99.90;;;;;;4957347;28;20192;-81
2022/04/01 04:43:12;;;;;;;43.87;20.73;;;3.70;99.90;;;;;;4960208;28;20218;-81
2022/04/01 04:45:38;;;;;;;54.30;25.08;;;3.70;99.90;;;;;;4961019;28;20211;-81
2022/04/01 04:48:04;;;;;;;47.47;21.20;;;3.50;99.90;;;;;;4956793;28;20187;-82
2022/04/01 04:50:32;;;;;;;49.58;22.13;;;3.50;99.90;;;;;;4961400;28;20440;-83
2022/04/01 04:52:57;;;;;;;48.10;22.90;;;3.50;99.90;;;;;;4962685;28;20247;-81
2022/04/01 04:55:25;;;;;;;55.63;25.77;;;3.50;99.90;;;;;;4955914;28;20200;-82
2022/04/01 04:57:52;;;;;;;53.72;25.52;;;3.50;99.90;;;;;;4969882;28;20435;-82
2022/04/01 05:00:19;;;;;;;51.17;24.60;;;3.50;99.90;;;;;;4953434;28;20867;-80
2022/04/01 05:03:07;;;;;;;55.03;23.90;;;3.60;99.90;;;;;;4960095;28;20199;-82
2022/04/01 05:05:38;;;;;;;65.22;29.52;;;3.60;99.90;;;;;;4961816;28;20209;-80
2022/04/01 05:08:36;;;;;;;52.22;24.65;;;3.60;99.90;;;;;;4947774;28;20518;-83
2022/04/01 05:11:06;;;;;;;55.58;24.50;;;3.50;99.90;;;;;;4953184;28;20262;-82
2022/04/01 05:14:07;;;;;;;64.75;27.17;;;3.50;99.90;;;;;;4952506;28;20188;-81
2022/04/01 05:16:54;;;;;;;60.95;26.63;;;3.50;99.90;;;;;;4935114;28;20917;-79
2022/04/01 05:19:31;;;;;;;60.58;27.98;;;3.40;99.90;;;;;;4951432;28;20188;-82
2022/04/01 05:22:08;;;;;;;52.45;24.63;;;3.50;99.90;;;;;;4957372;28;20184;-82
2022/04/01 05:24:47;;;;;;;65.03;27.58;;;3.40;99.90;;;;;;4957017;28;20179;-82
2022/04/01 05:27:26;;;;;;;44.10;21.40;;;3.40;99.90;;;;;;4953511;28;20249;-82
2022/04/01 05:30:16;;;;;;;57.17;25.35;;;3.30;99.90;;;;;;4947254;28;20208;-80
2022/04/01 05:33:08;;;;;;;44.50;21.33;;;3.30;99.90;;;;;;4946452;28;20553;-80
2022/04/01 05:35:39;;;;;;;55.67;28.20;;;3.20;99.90;;;;;;4950673;28;20199;-81
2022/04/01 05:38:09;;;;;;;62.05;26.67;;;3.20;99.90;;;;;;4960023;28;20195;-80
2022/04/01 05:40:37;;;;;;;46.35;21.20;;;3.30;99.90;;;;;;4954458;28;20176;-81
2022/04/01 05:43:04;;;;;;;62.40;27.75;;;3.20;99.90;;;;;;4956693;28;20566;-80
2022/04/01 05:45:30;;;;;;;63.22;27.65;;;3.20;99.90;;;;;;4948589;28;20196;-80
2022/04/01 05:47:57;;;;;;;64.38;32.70;;;3.20;99.90;;;;;;4954132;28;20187;-81
2022/04/01 05:50:24;;;;;;;56.78;25.08;;;3.30;99.90;;;;;;4958293;28;20323;-82
2022/04/01 05:52:51;;;;;;;60.95;30.15;;;3.30;99.90;;;;;;4954122;28;20183;-81
2022/04/01 05:55:20;;;;;;;63.47;29.27;;;3.30;99.90;;;;;;4950903;28;20206;-83
2022/04/01 05:57:46;;;;;;;65.65;29.67;;;3.30;99.90;;;;;;4953738;28;20176;-81
2022/04/01 06:00:12;;;;;;;76.20;33.70;;;3.30;99.90;;;;;;4964901;28;20199;-81
2022/04/01 06:02:43;;;;;;;56.07;29.37;;;3.30;99.90;;;;;;4957167;28;20693;-83
2022/04/01 06:05:31;;;;;;;66.97;29.55;;;3.20;99.90;;;;;;4949813;28;20622;-81
2022/04/01 06:08:25;;;;;;;66.05;31.15;;;3.20;99.90;;;;;;4947201;28;20191;-80
2022/04/01 06:11:20;;;;;;;58.63;27.35;;;3.20;99.90;;;;;;4943951;28;20227;-81
2022/04/01 06:14:10;;;;;;;65.97;32.03;;;3.30;99.90;;;;;;4947473;28;20614;-83
2022/04/01 06:16:52;;;;;;;65.93;29.83;;;3.20;99.90;;;;;;4954184;28;20223;-81
2022/04/01 06:19:29;;;;;;;66.55;29.15;;;3.20;99.90;;;;;;4954234;28;20190;-80
2022/04/01 06:22:03;;;;;;;64.90;29.70;;;3.20;99.90;;;;;;4959098;28;20757;-82
2022/04/01 06:25:13;;;;;;;64.22;30.23;;;3.20;99.90;;;;;;4954095;28;20231;-81
2022/04/01 06:27:45;;;;;;;74.50;31.13;;;3.20;99.90;;;;;;4947479;28;20192;-80
2022/04/01 06:30:15;;;;;;;60.63;32.65;;;3.20;99.90;;;;;;4946719;28;20211;-83
2022/04/01 06:32:50;;;;;;;65.05;30.23;;;3.20;99.90;;;;;;4956329;28;20641;-81
2022/04/01 06:35:36;;;;;;;62.78;29.90;;;3.20;99.90;;;;;;4950000;28;20381;-82
2022/04/01 06:38:07;;;;;;;62.45;31.50;;;3.20;99.90;;;;;;4964459;28;20524;-82
2022/04/01 06:40:52;;;;;;;66.40;29.70;;;3.30;99.90;;;;;;4976853;23;20610;-83
2022/04/01 06:43:17;;;;;;;74.40;36.10;;;3.30;99.90;;;;;;4947692;28;20891;-83
2022/04/01 06:45:43;;;;;;;72.83;32.87;;;3.30;99.90;;;;;;4946298;28;20265;-83
2022/04/01 06:48:09;;;;;;;71.60;32.05;;;3.30;99.90;;;;;;4947640;28;20168;-83
2022/04/01 06:50:37;;;;;;;62.97;32.60;;;3.20;99.90;;;;;;4959760;28;20610;-84
2022/04/01 06:53:03;;;;;;;71.40;35.97;;;3.40;99.90;;;;;;4937785;28;20236;-84
2022/04/01 06:55:28;;;;;;;76.57;32.23;;;3.40;99.90;;;;;;4937011;29;20935;-83
2022/04/01 06:57:54;;;;;;;73.03;35.00;;;3.30;99.90;;;;;;4931300;29;20738;-83
2022/04/01 07:00:20;;;;;;;76.27;31.00;;;3.80;99.90;;;;;;4930104;29;20682;-84
2022/04/01 07:02:46;;;;;;;69.37;33.50;;;3.30;99.90;;;;;;4930194;29;20209;-84
2022/04/01 07:05:12;;;;;;;62.10;28.95;;;3.30;99.90;;;;;;4927631;29;20177;-83
2022/04/01 07:07:41;;;;;;;55.42;26.88;;;3.20;99.90;;;;;;4935141;29;20725;-83
2022/04/01 07:10:09;;;;;;;55.92;29.60;;;3.30;99.90;;;;;;4931830;29;20219;-83
2022/04/01 07:12:35;;;;;;;69.88;35.30;;;3.20;99.90;;;;;;4930400;29;20189;-84
2022/04/01 07:15:00;;;;;;;67.17;28.53;;;3.20;99.90;;;;;;4928328;29;20997;-84
2022/04/01 07:17:27;;;;;;;73.20;33.27;;;3.20;99.90;;;;;;4930468;29;20205;-86
2022/04/01 07:19:53;;;;;;;73.72;33.28;;;3.30;99.90;;;;;;4935101;29;20212;-83
2022/04/01 07:22:18;;;;;;;74.70;30.40;;;3.30;99.90;;;;;;4931757;29;20173;-84
2022/04/01 07:24:45;;;;;;;61.33;29.97;;;3.20;99.90;;;;;;4921041;29;20196;-83
2022/04/01 07:27:11;;;;;;;58.15;27.17;;;3.30;99.90;;;;;;4931739;29;20523;-85
2022/04/01 07:29:37;;;;;;;73.13;33.60;;;3.20;99.90;;;;;;4930278;29;20779;-84
2022/04/01 07:34:49;;;;;;;64.60;30.25;;;3.30;99.90;;;;;;4933165;29;20199;-84
2022/04/01 07:37:15;;;;;;;65.90;30.65;;;3.30;99.90;;;;;;4925164;29;20185;-83
2022/04/01 07:39:40;;;;;;;63.80;27.83;;;3.20;99.90;;;;;;4929756;29;20196;-84
2022/04/01 07:42:07;;;;;;;53.97;26.80;;;3.20;99.90;;;;;;4932547;29;20688;-84
2022/04/01 07:44:34;;;;;;;74.45;32.03;;;3.10;99.90;;;;;;4928590;29;20430;-84
2022/04/01 07:47:01;;;;;;;62.13;27.10;;;3.10;99.90;;;;;;4915518;29;20197;-84
2022/04/01 07:49:28;;;;;;;42.35;21.20;;;3.10;99.90;;;;;;4924049;29;20411;-84
2022/04/01 07:51:53;;;;;;;50.15;23.33;;;3.10;99.90;;;;;;4924725;29;20193;-84
2022/04/01 07:54:19;;;;;;;46.67;22.63;;;3.10;99.90;;;;;;4922072;29;20185;-83
2022/04/01 07:56:44;;;;;;;50.63;25.87;;;3.10;99.90;;;;;;4923142;29;20217;-84
2022/04/01 07:59:14;;;;;;;48.27;25.67;;;3.00;99.90;;;;;;4928565;29;20197;-84
2022/04/01 08:01:40;;;;;;;45.45;24.65;;;3.10;99.90;;;;;;4930100;29;20280;-85
2022/04/01 08:04:06;;;;;;;42.58;21.92;;;3.10;99.90;;;;;;4932285;28;20323;-85
2022/04/01 08:06:32;;;;;;;45.77;21.00;;;3.20;99.90;;;;;;4927804;29;20623;-84
2022/04/01 08:08:58;;;;;;;37.00;15.90;;;3.10;99.90;;;;;;4924208;29;20708;-84
2022/04/01 08:11:27;;;;;;;45.33;23.15;;;3.00;99.90;;;;;;4921640;29;20880;-85
2022/04/01 08:13:54;;;;;;;45.95;22.77;;;3.10;99.90;;;;;;4939156;28;20185;-84
2022/04/01 08:16:22;;;;;;;45.42;22.42;;;3.10;99.90;;;;;;4926954;29;20563;-85
2022/04/01 08:18:47;;;;;;;39.00;20.60;;;3.00;99.90;;;;;;4925588;29;20196;-84
2022/04/01 08:21:14;;;;;;;45.77;22.40;;;2.90;99.90;;;;;;4927151;29;20639;-84
2022/04/01 08:23:40;;;;;;;41.05;20.27;;;3.00;99.90;;;;;;4941082;28;20189;-83
2022/04/01 08:26:07;;;;;;;47.23;22.63;;;3.00;99.90;;;;;;4928355;28;20196;-85
2022/04/01 08:28:33;;;;;;;41.60;19.33;;;3.10;99.90;;;;;;4920105;29;20264;-84
2022/04/01 08:30:59;;;;;;;43.47;21.70;;;3.10;99.90;;;;;;4928590;29;20274;-83
2022/04/01 08:33:25;;;;;;;42.67;20.48;;;3.00;99.90;;;;;;4929966;29;20415;-84
2022/04/01 08:35:50;;;;;;;46.13;22.93;;;3.10;99.90;;;;;;4931969;29;20192;-84
2022/04/01 08:38:16;;;;;;;39.93;21.73;;;3.10;99.90;;;;;;4928397;28;20606;-84
2022/04/01 08:40:43;;;;;;;45.23;22.47;;;3.10;99.90;;;;;;4929018;29;20223;-83
2022/04/01 08:43:09;;;;;;;43.50;22.92;;;3.10;99.90;;;;;;4930796;29;20525;-86
2022/04/01 08:45:39;;;;;;;47.22;22.10;;;3.10;99.90;;;;;;4924842;29;20241;-86
2022/04/01 08:48:09;;;;;;;43.47;21.90;;;3.10;99.90;;;;;;4929341;29;20193;-86
2022/04/01 08:50:34;;;;;;;45.72;21.42;;;3.10;99.90;;;;;;4928493;29;20753;-85
2022/04/01 08:53:01;;;;;;;44.73;21.10;;;3.10;99.90;;;;;;4924577;29;20196;-87
2022/04/01 08:55:27;;;;;;;36.25;19.67;;;3.00;99.90;;;;;;4924035;29;20665;-86
2022/04/01 08:57:52;;;;;;;34.73;17.40;;;3.10;99.90;;;;;;4933687;29;20184;-86
2022/04/01 09:00:18;;;;;;;27.20;16.20;;;3.10;99.90;;;;;;4932983;29;20461;-86
2022/04/01 09:02:50;;;;;;;39.53;18.37;;;3.00;99.90;;;;;;4935715;29;20181;-86
2022/04/01 09:05:16;;;;;;;43.67;19.67;;;3.10;99.90;;;;;;4929607;29;20203;-86
2022/04/01 09:07:43;;;;;;;33.90;17.20;;;3.10;99.90;;;;;;4932644;29;20205;-85
2022/04/01 09:10:09;;;;;;;37.42;19.38;;;3.20;99.90;;;;;;4933528;29;20212;-85
2022/04/01 09:12:35;;;;;;;35.97;19.07;;;3.20;99.90;;;;;;4930918;29;20209;-86
2022/04/01 09:15:02;;;;;;;33.20;17.33;;;3.20;99.90;;;;;;4926576;29;20189;-86
2022/04/01 09:17:42;;;;;;;37.65;18.33;;;3.30;99.90;;;;;;4932392;29;20436;-87
2022/04/01 09:20:09;;;;;;;34.88;19.33;;;3.30;99.90;;;;;;4929430;29;20634;-87
2022/04/01 09:22:36;;;;;;;31.10;15.75;;;3.20;99.90;;;;;;4927608;29;20213;-86
2022/04/01 09:25:08;;;;;;;32.75;18.17;;;3.20;99.90;;;;;;4936173;29;20201;-86
2022/04/01 09:27:51;;;;;;;32.05;17.38;;;3.10;99.90;;;;;;4934690;29;20181;-85
2022/04/01 09:30:20;;;;;;;44.17;18.10;;;3.20;99.90;;;;;;4926960;29;20284;-87
2022/04/01 09:32:48;;;;;;;33.58;17.30;;;3.20;99.90;;;;;;4932804;29;20172;-86
2022/04/01 09:35:15;;;;;;;34.42;18.38;;;3.20;99.90;;;;;;4933972;29;20208;-85
2022/04/01 09:37:46;;;;;;;25.90;14.88;;;3.10;99.90;;;;;;4935807;29;20240;-87
2022/04/01 09:40:14;;;;;;;31.60;17.17;;;3.20;99.90;;;;;;4933491;29;20304;-87
2022/04/01 09:42:46;;;;;;;31.85;15.90;;;3.20;99.90;;;;;;4935377;29;20740;-86
2022/04/01 09:45:16;;;;;;;34.25;17.33;;;3.30;99.90;;;;;;4938528;28;20718;-86
2022/04/01 09:47:41;;;;;;;31.30;15.93;;;3.30;99.90;;;;;;4929670;29;20273;-87
2022/04/01 09:50:16;;;;;;;30.47;16.30;;;3.30;99.90;;;;;;4946035;28;20216;-85
2022/04/01 09:52:42;;;;;;;34.30;16.45;;;3.30;99.90;;;;;;4927067;29;20724;-86
2022/04/01 09:55:08;;;;;;;26.13;14.77;;;3.30;99.90;;;;;;4931417;28;20212;-86
2022/04/01 09:57:34;;;;;;;28.03;16.53;;;3.30;99.90;;;;;;4932921;29;20189;-86
2022/04/01 10:00:00;;;;;;;33.20;16.80;;;3.30;99.90;;;;;;4936867;29;20483;-83
2022/04/01 10:02:29;;;;;;;27.80;13.68;;;3.30;99.90;;;;;;4932847;29;20440;-84
2022/04/01 10:04:55;;;;;;;23.20;13.32;;;3.40;99.90;;;;;;4938332;29;20192;-83
2022/04/01 10:07:22;;;;;;;23.90;13.00;;;3.30;99.90;;;;;;4934888;28;20193;-85
2022/04/01 10:09:49;;;;;;;25.75;13.55;;;3.20;99.90;;;;;;4933397;29;20204;-85
2022/04/01 10:12:19;;;;;;;22.55;12.60;;;3.20;99.90;;;;;;4933461;29;20257;-84
2022/04/01 10:14:46;;;;;;;26.58;13.93;;;3.30;99.90;;;;;;4950734;28;20189;-84
2022/04/01 10:17:15;;;;;;;27.35;13.52;;;3.20;99.90;;;;;;4933926;29;20348;-84
2022/04/01 10:19:49;;;;;;;22.33;13.60;;;3.20;99.90;;;;;;4938105;29;20200;-85
2022/04/01 10:22:16;;;;;;;22.08;12.85;;;3.20;99.90;;;;;;4934269;29;20184;-85
2022/04/01 10:25:01;;;;;;;21.48;12.75;;;3.20;99.90;;;;;;4934958;29;20343;-84
2022/04/01 10:27:37;;;;;;;17.92;11.30;;;3.20;99.90;;;;;;4929033;29;20263;-85
2022/04/01 10:30:04;;;;;;;17.77;12.25;;;3.20;99.90;;;;;;4920880;29;20280;-84
2022/04/01 10:32:46;;;;;;;23.60;13.63;;;3.20;99.90;;;;;;4929715;29;20185;-85
2022/04/01 10:35:32;;;;;;;14.05;7.07;;;3.20;99.90;;;;;;4933517;29;20189;-85
2022/04/01 10:38:10;;;;;;;3.70;2.60;;;3.30;99.90;;;;;;4934444;29;20204;-84
2022/04/01 10:40:42;;;;;;;5.07;3.30;;;3.20;99.90;;;;;;4942203;28;20589;-84
2022/04/01 10:43:17;;;;;;;4.80;3.65;;;2.90;99.90;;;;;;4933540;29;20188;-84
2022/04/01 10:46:03;;;;;;;4.07;2.95;;;2.60;99.90;;;;;;4942009;29;20323;-84
2022/04/01 10:51:37;;;;;;;4.03;2.97;;;2.50;99.90;;;;;;4936799;29;20248;-85
2022/04/01 10:54:22;;;;;;;5.53;3.67;;;2.30;99.90;;;;;;4948970;28;20272;-84
2022/04/01 10:57:00;;;;;;;6.03;4.13;;;2.20;99.90;;;;;;4928679;29;20499;-85
2022/04/01 10:59:28;;;;;;;6.00;4.03;;;2.20;99.90;;;;;;4937774;29;20644;-84
2022/04/01 11:01:53;;;;;;;7.35;3.90;;;2.20;99.90;;;;;;4933412;29;20209;-85
2022/04/01 11:04:19;;;;;;;6.53;4.70;;;2.30;99.90;;;;;;4931676;29;20376;-86
2022/04/01 11:07:23;;;;;;;5.00;4.40;;;2.40;99.90;;;;;;4933716;29;20611;-84
2022/04/01 11:09:50;;;;;;;6.50;4.93;;;2.30;99.90;;;;;;4928570;29;20235;-84
2022/04/01 11:12:15;;;;;;;6.88;5.05;;;2.30;99.90;;;;;;4934816;29;20189;-83
2022/04/01 11:14:59;;;;;;;6.60;4.67;;;2.20;99.90;;;;;;4936324;29;21566;-85
2022/04/01 11:17:25;;;;;;;6.15;4.82;;;2.30;99.90;;;;;;4932658;29;20188;-86
2022/04/01 11:20:10;;;;;;;10.20;5.67;;;2.50;99.90;;;;;;4934826;29;20189;-84
2022/04/01 11:22:39;;;;;;;9.15;6.72;;;2.50;99.90;;;;;;4939832;28;20184;-85
2022/04/01 11:25:06;;;;;;;7.40;5.60;;;2.40;99.90;;;;;;4934478;29;20191;-84
2022/04/01 11:27:35;;;;;;;9.00;6.25;;;2.50;99.90;;;;;;4933303;29;20185;-84
2022/04/01 11:30:13;;;;;;;9.25;6.93;;;2.50;99.90;;;;;;4933722;29;20201;-84
2022/04/01 11:32:41;;;;;;;9.18;6.05;;;2.60;99.90;;;;;;4934598;29;20185;-84
2022/04/01 11:35:08;;;;;;;13.30;8.05;;;2.80;99.90;;;;;;4936366;29;20208;-85
2022/04/01 11:37:39;;;;;;;12.10;8.52;;;2.80;99.90;;;;;;4929789;29;20195;-84
2022/04/01 11:40:10;;;;;;;13.05;8.32;;;2.80;99.90;;;;;;4928606;29;20239;-85
2022/04/01 11:42:58;;;;;;;12.65;8.73;;;2.80;99.90;;;;;;4924835;29;20494;-84
2022/04/01 11:45:29;;;;;;;14.02;9.07;;;2.70;99.90;;;;;;4936676;29;20680;-86
2022/04/01 11:47:54;;;;;;;13.23;9.00;;;2.80;99.90;;;;;;4936492;29;20177;-85
2022/04/01 11:50:22;;;;;;;10.10;7.67;;;2.80;99.90;;;;;;4937871;29;20216;-85
2022/04/01 11:52:55;;;;;;;13.10;8.35;;;2.80;99.90;;;;;;4938335;29;20335;-84
2022/04/01 11:55:27;;;;;;;15.02;9.32;;;2.70;99.90;;;;;;4940811;29;20176;-84
2022/04/01 11:57:54;;;;;;;13.70;9.60;;;2.70;99.90;;;;;;4938267;29;20184;-85
2022/04/01 12:00:23;;;;;;;11.95;8.32;;;2.70;99.90;;;;;;4942740;29;20220;-84
2022/04/01 12:02:51;;;;;;;15.25;9.90;;;2.80;99.90;;;;;;4942970;28;20250;-86
2022/04/01 12:05:17;;;;;;;13.65;9.20;;;2.90;99.90;;;;;;4938826;29;20182;-85
2022/04/01 12:10:36;;;;;;;14.73;9.90;;;2.90;99.90;;;;;;4938878;29;20652;-84
2022/04/01 12:13:05;;;;;;;18.83;10.63;;;2.50;99.90;;;;;;4944860;29;20177;-84
2022/04/01 12:15:35;;;;;;;20.73;11.93;;;2.20;99.90;;;;;;4941817;29;20473;-84
2022/04/01 12:18:05;;;;;;;19.90;12.15;;;2.30;99.90;;;;;;4940269;29;20283;-84
2022/04/01 12:20:37;;;;;;;18.38;10.45;;;2.30;99.90;;;;;;4939233;29;20205;-85
2022/04/01 12:23:02;;;;;;;21.15;11.75;;;2.20;99.90;;;;;;4941475;29;20185;-85
2022/04/01 12:25:30;;;;;;;17.17;11.70;;;2.10;99.90;;;;;;4941323;29;20214;-85
2022/04/01 12:28:04;;;;;;;18.23;11.43;;;2.30;99.90;;;;;;4936140;29;20176;-85
2022/04/01 12:30:38;;;;;;;18.40;11.32;;;2.30;99.90;;;;;;4933458;29;20263;-86
2022/04/01 12:33:09;;;;;;;18.02;11.57;;;2.40;99.90;;;;;;4934163;29;20192;-85
2022/04/01 12:35:56;;;;;;;18.98;11.80;;;2.40;99.90;;;;;;4937603;29;20181;-85
2022/04/01 12:38:22;;;;;;;17.83;11.15;;;2.50;99.90;;;;;;4936940;29;20524;-84
2022/04/01 12:40:48;;;;;;;19.92;12.60;;;2.40;99.90;;;;;;4949996;23;20227;-86
2022/04/01 12:43:33;;;;;;;25.07;13.23;;;2.30;99.90;;;;;;4986001;28;20264;-85
2022/04/01 12:46:06;;;;;;;22.48;13.60;;;2.20;99.90;;;;;;4970228;28;20179;-85
2022/04/01 12:48:59;;;;;;;19.70;11.55;;;2.10;99.90;;;;;;4971039;28;20219;-86
2022/04/01 12:51:28;;;;;;;23.80;11.50;;;2.20;99.90;;;;;;4971294;28;20212;-85
2022/04/01 12:54:08;;;;;;;18.08;12.88;;;2.30;99.90;;;;;;4963079;28;20183;-86
2022/04/01 12:56:35;;;;;;;20.00;11.52;;;2.30;99.90;;;;;;4964999;28;20187;-86
2022/04/01 12:59:05;;;;;;;20.70;13.68;;;2.30;99.90;;;;;;4961645;28;20187;-85
2022/04/01 13:01:33;;;;;;;17.50;11.25;;;2.20;99.90;;;;;;4957336;28;20246;-85
2022/04/01 13:03:59;;;;;;;23.70;11.43;;;2.10;99.90;;;;;;4964474;28;20283;-84
2022/04/01 13:06:26;;;;;;;24.88;12.85;;;2.00;99.90;;;;;;4967296;28;20192;-85